sensor_id;sensor_type;location;lat;lon;timestamp;P1;durP1;ratioP1;P2;durP2;ratioP2
78555;SDS011;67851;51.354;7.744;2024-01-07T00:01:17;424.35;;;33.13;;
78555;SDS011;67851;51.354;7.744;2024-01-07T00:03:44;113.05;;;24.38;;
78555;SDS011;67851;51.354;7.744;2024-01-07T00:06:11;166.23;;;26.52;;
78555;SDS011;67851;51.354;7.744;2024-01-07T00:08:37;202.27;;;27.85;;
78555;SDS011;67851;51.354;7.744;2024-01-07T00:11:04;172.98;;;28.02;;
78555;SDS011;67851;51.354;7.744;2024-01-07T00:13:31;166.57;;;24.98;;
78555;SDS011;67851;51.354;7.744;2024-01-07T00:15:58;136.93;;;24.55;;
78555;SDS011;67851;51.354;7.744;2024-01-07T00:18:26;206.13;;;29.40;;
78555;SDS011;67851;51.354;7.744;2024-01-07T00:20:53;147.77;;;24.67;;
78555;SDS011;67851;51.354;7.744;2024-01-07T00:23:20;251.07;;;32.55;;
78555;SDS011;67851;51.354;7.744;2024-01-07T00:25:47;529.00;;;38.30;;
78555;SDS011;67851;51.354;7.744;2024-01-07T00:28:14;655.85;;;36.58;;
78555;SDS011;67851;51.354;7.744;2024-01-07T00:30:41;794.78;;;38.60;;
78555;SDS011;67851;51.354;7.744;2024-01-07T00:33:08;778.60;;;37.60;;
78555;SDS011;67851;51.354;7.744;2024-01-07T00:35:35;549.42;;;29.65;;
78555;SDS011;67851;51.354;7.744;2024-01-07T00:38:01;541.42;;;33.80;;
78555;SDS011;67851;51.354;7.744;2024-01-07T00:40:28;881.40;;;46.35;;
78555;SDS011;67851;51.354;7.744;2024-01-07T00:42:55;590.00;;;31.38;;
78555;SDS011;67851;51.354;7.744;2024-01-07T00:45:21;1018.28;;;49.10;;
78555;SDS011;67851;51.354;7.744;2024-01-07T00:47:48;617.03;;;33.63;;
78555;SDS011;67851;51.354;7.744;2024-01-07T00:50:15;987.95;;;43.88;;
78555;SDS011;67851;51.354;7.744;2024-01-07T00:52:42;919.55;;;44.22;;
78555;SDS011;67851;51.354;7.744;2024-01-07T00:55:10;894.17;;;40.22;;
78555;SDS011;67851;51.354;7.744;2024-01-07T00:57:36;1052.70;;;45.72;;
78555;SDS011;67851;51.354;7.744;2024-01-07T01:00:06;998.92;;;44.47;;
78555;SDS011;67851;51.354;7.744;2024-01-07T01:02:34;1116.13;;;50.80;;
78555;SDS011;67851;51.354;7.744;2024-01-07T01:05:02;871.90;;;44.30;;
78555;SDS011;67851;51.354;7.744;2024-01-07T01:07:30;878.78;;;42.03;;
78555;SDS011;67851;51.354;7.744;2024-01-07T01:09:58;899.63;;;44.33;;
78555;SDS011;67851;51.354;7.744;2024-01-07T01:12:24;804.45;;;37.83;;
78555;SDS011;67851;51.354;7.744;2024-01-07T01:14:51;602.08;;;33.88;;
78555;SDS011;67851;51.354;7.744;2024-01-07T01:17:18;372.52;;;24.98;;
78555;SDS011;67851;51.354;7.744;2024-01-07T01:19:45;1002.60;;;48.72;;
78555;SDS011;67851;51.354;7.744;2024-01-07T01:22:11;592.85;;;35.80;;
78555;SDS011;67851;51.354;7.744;2024-01-07T01:24:38;740.15;;;40.20;;
78555;SDS011;67851;51.354;7.744;2024-01-07T01:27:05;426.70;;;29.40;;
78555;SDS011;67851;51.354;7.744;2024-01-07T01:29:32;791.90;;;45.42;;
78555;SDS011;67851;51.354;7.744;2024-01-07T01:31:59;923.25;;;44.38;;
78555;SDS011;67851;51.354;7.744;2024-01-07T01:34:26;996.22;;;44.67;;
78555;SDS011;67851;51.354;7.744;2024-01-07T01:36:53;564.85;;;35.80;;
78555;SDS011;67851;51.354;7.744;2024-01-07T01:39:20;829.08;;;47.72;;
78555;SDS011;67851;51.354;7.744;2024-01-07T01:41:46;624.88;;;37.67;;
78555;SDS011;67851;51.354;7.744;2024-01-07T01:44:13;855.92;;;48.45;;
78555;SDS011;67851;51.354;7.744;2024-01-07T01:46:40;716.88;;;38.80;;
78555;SDS011;67851;51.354;7.744;2024-01-07T01:49:07;468.50;;;36.17;;
78555;SDS011;67851;51.354;7.744;2024-01-07T01:51:35;583.20;;;37.90;;
78555;SDS011;67851;51.354;7.744;2024-01-07T01:54:01;1129.80;;;57.03;;
78555;SDS011;67851;51.354;7.744;2024-01-07T01:56:28;906.28;;;49.28;;
78555;SDS011;67851;51.354;7.744;2024-01-07T01:58:56;964.28;;;49.78;;
78555;SDS011;67851;51.354;7.744;2024-01-07T02:01:23;936.72;;;53.30;;
78555;SDS011;67851;51.354;7.744;2024-01-07T02:03:52;666.80;;;37.13;;
78555;SDS011;67851;51.354;7.744;2024-01-07T02:06:20;810.30;;;47.63;;
78555;SDS011;67851;51.354;7.744;2024-01-07T02:08:47;927.60;;;44.15;;
78555;SDS011;67851;51.354;7.744;2024-01-07T02:11:15;853.70;;;48.63;;
78555;SDS011;67851;51.354;7.744;2024-01-07T02:13:43;550.28;;;31.83;;
78555;SDS011;67851;51.354;7.744;2024-01-07T02:16:10;905.35;;;51.95;;
78555;SDS011;67851;51.354;7.744;2024-01-07T02:18:37;716.83;;;42.00;;
78555;SDS011;67851;51.354;7.744;2024-01-07T02:21:06;708.90;;;44.55;;
78555;SDS011;67851;51.354;7.744;2024-01-07T02:23:33;667.50;;;48.88;;
78555;SDS011;67851;51.354;7.744;2024-01-07T02:25:59;577.53;;;41.88;;
78555;SDS011;67851;51.354;7.744;2024-01-07T02:28:26;424.70;;;44.88;;
78555;SDS011;67851;51.354;7.744;2024-01-07T02:30:55;509.73;;;42.70;;
78555;SDS011;67851;51.354;7.744;2024-01-07T02:33:21;295.40;;;36.38;;
78555;SDS011;67851;51.354;7.744;2024-01-07T02:35:48;394.45;;;40.65;;
78555;SDS011;67851;51.354;7.744;2024-01-07T02:38:15;438.13;;;37.92;;
78555;SDS011;67851;51.354;7.744;2024-01-07T02:40:41;575.70;;;42.47;;
78555;SDS011;67851;51.354;7.744;2024-01-07T02:43:08;454.08;;;34.78;;
78555;SDS011;67851;51.354;7.744;2024-01-07T02:45:35;1111.75;;;59.50;;
78555;SDS011;67851;51.354;7.744;2024-01-07T02:48:02;719.83;;;42.72;;
78555;SDS011;67851;51.354;7.744;2024-01-07T02:50:30;1087.03;;;60.90;;
78555;SDS011;67851;51.354;7.744;2024-01-07T02:52:57;657.17;;;38.55;;
78555;SDS011;67851;51.354;7.744;2024-01-07T02:55:24;931.20;;;54.20;;
78555;SDS011;67851;51.354;7.744;2024-01-07T02:57:51;1046.38;;;64.00;;
78555;SDS011;67851;51.354;7.744;2024-01-07T03:00:18;572.67;;;46.25;;
78555;SDS011;67851;51.354;7.744;2024-01-07T03:02:45;677.10;;;47.67;;
78555;SDS011;67851;51.354;7.744;2024-01-07T03:05:11;883.33;;;58.33;;
78555;SDS011;67851;51.354;7.744;2024-01-07T03:07:38;858.25;;;56.97;;
78555;SDS011;67851;51.354;7.744;2024-01-07T03:10:06;697.35;;;48.65;;
78555;SDS011;67851;51.354;7.744;2024-01-07T03:12:33;454.05;;;51.33;;
78555;SDS011;67851;51.354;7.744;2024-01-07T03:15:01;744.03;;;53.33;;
78555;SDS011;67851;51.354;7.744;2024-01-07T03:17:28;628.60;;;45.90;;
78555;SDS011;67851;51.354;7.744;2024-01-07T03:19:54;784.97;;;54.55;;
78555;SDS011;67851;51.354;7.744;2024-01-07T03:22:21;643.17;;;44.38;;
78555;SDS011;67851;51.354;7.744;2024-01-07T03:24:47;939.50;;;65.03;;
78555;SDS011;67851;51.354;7.744;2024-01-07T03:27:14;692.20;;;51.78;;
78555;SDS011;67851;51.354;7.744;2024-01-07T03:29:41;943.65;;;65.55;;
78555;SDS011;67851;51.354;7.744;2024-01-07T03:32:08;950.85;;;55.45;;
78555;SDS011;67851;51.354;7.744;2024-01-07T03:34:35;664.10;;;46.28;;
78555;SDS011;67851;51.354;7.744;2024-01-07T03:37:02;736.08;;;46.28;;
78555;SDS011;67851;51.354;7.744;2024-01-07T03:39:31;865.90;;;45.20;;
78555;SDS011;67851;51.354;7.744;2024-01-07T03:41:58;791.08;;;44.83;;
78555;SDS011;67851;51.354;7.744;2024-01-07T03:44:25;1077.47;;;62.50;;
78555;SDS011;67851;51.354;7.744;2024-01-07T03:46:52;1311.80;;;66.80;;
78555;SDS011;67851;51.354;7.744;2024-01-07T03:49:18;688.70;;;44.92;;
78555;SDS011;67851;51.354;7.744;2024-01-07T03:51:45;1373.57;;;68.13;;
78555;SDS011;67851;51.354;7.744;2024-01-07T03:54:12;634.47;;;40.35;;
78555;SDS011;67851;51.354;7.744;2024-01-07T03:56:39;921.45;;;52.83;;
78555;SDS011;67851;51.354;7.744;2024-01-07T03:59:05;873.88;;;50.63;;
78555;SDS011;67851;51.354;7.744;2024-01-07T04:01:34;918.08;;;50.40;;
78555;SDS011;67851;51.354;7.744;2024-01-07T04:04:01;993.85;;;57.65;;
78555;SDS011;67851;51.354;7.744;2024-01-07T04:06:28;828.65;;;53.70;;
78555;SDS011;67851;51.354;7.744;2024-01-07T04:08:55;548.85;;;41.22;;
78555;SDS011;67851;51.354;7.744;2024-01-07T04:11:21;581.35;;;46.50;;
78555;SDS011;67851;51.354;7.744;2024-01-07T04:13:48;1285.13;;;73.18;;
78555;SDS011;67851;51.354;7.744;2024-01-07T04:16:18;750.55;;;51.35;;
78555;SDS011;67851;51.354;7.744;2024-01-07T04:18:46;668.50;;;47.57;;
78555;SDS011;67851;51.354;7.744;2024-01-07T04:21:19;862.28;;;61.47;;
78555;SDS011;67851;51.354;7.744;2024-01-07T04:23:46;270.58;;;30.30;;
78555;SDS011;67851;51.354;7.744;2024-01-07T04:26:13;286.10;;;44.03;;
78555;SDS011;67851;51.354;7.744;2024-01-07T04:28:41;327.95;;;47.55;;
78555;SDS011;67851;51.354;7.744;2024-01-07T04:31:08;470.95;;;47.80;;
78555;SDS011;67851;51.354;7.744;2024-01-07T04:33:35;611.22;;;54.30;;
78555;SDS011;67851;51.354;7.744;2024-01-07T04:36:02;269.88;;;43.85;;
78555;SDS011;67851;51.354;7.744;2024-01-07T04:38:31;266.67;;;45.10;;
78555;SDS011;67851;51.354;7.744;2024-01-07T04:40:58;238.32;;;37.13;;
78555;SDS011;67851;51.354;7.744;2024-01-07T04:43:24;204.63;;;30.85;;
78555;SDS011;67851;51.354;7.744;2024-01-07T04:45:51;655.40;;;58.30;;
78555;SDS011;67851;51.354;7.744;2024-01-07T04:48:18;680.63;;;45.97;;
78555;SDS011;67851;51.354;7.744;2024-01-07T04:50:45;899.88;;;53.40;;
78555;SDS011;67851;51.354;7.744;2024-01-07T04:53:11;524.15;;;36.47;;
78555;SDS011;67851;51.354;7.744;2024-01-07T04:55:38;1197.53;;;67.13;;
78555;SDS011;67851;51.354;7.744;2024-01-07T04:58:04;883.28;;;52.60;;
78555;SDS011;67851;51.354;7.744;2024-01-07T05:00:33;860.00;;;61.05;;
78555;SDS011;67851;51.354;7.744;2024-01-07T05:03:00;1144.60;;;62.75;;
78555;SDS011;67851;51.354;7.744;2024-01-07T05:05:28;368.42;;;28.63;;
78555;SDS011;67851;51.354;7.744;2024-01-07T05:07:55;633.45;;;40.65;;
78555;SDS011;67851;51.354;7.744;2024-01-07T05:10:21;625.70;;;42.53;;
78555;SDS011;67851;51.354;7.744;2024-01-07T05:12:48;787.25;;;51.90;;
78555;SDS011;67851;51.354;7.744;2024-01-07T05:15:15;386.80;;;30.13;;
78555;SDS011;67851;51.354;7.744;2024-01-07T05:17:42;148.95;;;19.48;;
78555;SDS011;67851;51.354;7.744;2024-01-07T05:20:09;908.33;;;56.72;;
78555;SDS011;67851;51.354;7.744;2024-01-07T05:22:37;900.45;;;61.65;;
78555;SDS011;67851;51.354;7.744;2024-01-07T05:25:04;534.15;;;48.40;;
78555;SDS011;67851;51.354;7.744;2024-01-07T05:27:32;446.50;;;41.80;;
78555;SDS011;67851;51.354;7.744;2024-01-07T05:29:58;444.23;;;50.67;;
78555;SDS011;67851;51.354;7.744;2024-01-07T05:32:25;392.35;;;42.53;;
78555;SDS011;67851;51.354;7.744;2024-01-07T05:34:52;256.20;;;34.25;;
78555;SDS011;67851;51.354;7.744;2024-01-07T05:37:19;526.83;;;50.90;;
78555;SDS011;67851;51.354;7.744;2024-01-07T05:39:46;106.60;;;19.08;;
78555;SDS011;67851;51.354;7.744;2024-01-07T05:42:13;320.80;;;37.35;;
78555;SDS011;67851;51.354;7.744;2024-01-07T05:44:40;560.97;;;53.40;;
78555;SDS011;67851;51.354;7.744;2024-01-07T05:47:07;578.53;;;48.60;;
78555;SDS011;67851;51.354;7.744;2024-01-07T05:49:33;376.65;;;40.50;;
78555;SDS011;67851;51.354;7.744;2024-01-07T05:52:00;407.15;;;51.90;;
78555;SDS011;67851;51.354;7.744;2024-01-07T05:54:27;179.32;;;27.48;;
78555;SDS011;67851;51.354;7.744;2024-01-07T05:56:58;178.57;;;25.33;;
78555;SDS011;67851;51.354;7.744;2024-01-07T05:59:25;458.58;;;43.30;;
78555;SDS011;67851;51.354;7.744;2024-01-07T06:01:56;342.52;;;44.85;;
78555;SDS011;67851;51.354;7.744;2024-01-07T06:04:24;373.38;;;43.00;;
78555;SDS011;67851;51.354;7.744;2024-01-07T06:06:51;559.47;;;43.17;;
78555;SDS011;67851;51.354;7.744;2024-01-07T06:09:20;209.10;;;33.80;;
78555;SDS011;67851;51.354;7.744;2024-01-07T06:11:46;615.95;;;55.35;;
78555;SDS011;67851;51.354;7.744;2024-01-07T06:14:13;520.00;;;47.20;;
78555;SDS011;67851;51.354;7.744;2024-01-07T06:16:40;826.95;;;60.42;;
78555;SDS011;67851;51.354;7.744;2024-01-07T06:19:06;625.85;;;50.78;;
78555;SDS011;67851;51.354;7.744;2024-01-07T06:21:33;401.30;;;39.83;;
78555;SDS011;67851;51.354;7.744;2024-01-07T06:24:00;375.70;;;34.65;;
78555;SDS011;67851;51.354;7.744;2024-01-07T06:26:27;336.33;;;40.60;;
78555;SDS011;67851;51.354;7.744;2024-01-07T06:28:53;344.40;;;39.47;;
78555;SDS011;67851;51.354;7.744;2024-01-07T06:31:20;242.02;;;32.42;;
78555;SDS011;67851;51.354;7.744;2024-01-07T06:33:47;214.63;;;33.58;;
78555;SDS011;67851;51.354;7.744;2024-01-07T06:36:14;246.95;;;38.08;;
78555;SDS011;67851;51.354;7.744;2024-01-07T06:38:41;431.02;;;45.15;;
78555;SDS011;67851;51.354;7.744;2024-01-07T06:41:09;872.55;;;58.97;;
78555;SDS011;67851;51.354;7.744;2024-01-07T06:43:36;164.65;;;29.80;;
78555;SDS011;67851;51.354;7.744;2024-01-07T06:46:03;202.02;;;36.97;;
78555;SDS011;67851;51.354;7.744;2024-01-07T06:48:30;274.63;;;46.22;;
78555;SDS011;67851;51.354;7.744;2024-01-07T06:50:59;148.73;;;31.85;;
78555;SDS011;67851;51.354;7.744;2024-01-07T06:53:25;288.58;;;54.50;;
78555;SDS011;67851;51.354;7.744;2024-01-07T06:55:53;250.15;;;49.50;;
78555;SDS011;67851;51.354;7.744;2024-01-07T06:58:19;226.60;;;45.47;;
78555;SDS011;67851;51.354;7.744;2024-01-07T07:00:47;285.60;;;44.63;;
78555;SDS011;67851;51.354;7.744;2024-01-07T07:03:14;270.85;;;43.58;;
78555;SDS011;67851;51.354;7.744;2024-01-07T07:05:41;275.85;;;50.47;;
78555;SDS011;67851;51.354;7.744;2024-01-07T07:08:08;198.93;;;39.85;;
78555;SDS011;67851;51.354;7.744;2024-01-07T07:10:35;170.30;;;38.97;;
78555;SDS011;67851;51.354;7.744;2024-01-07T07:13:01;171.48;;;38.05;;
78555;SDS011;67851;51.354;7.744;2024-01-07T07:15:28;144.10;;;36.80;;
78555;SDS011;67851;51.354;7.744;2024-01-07T07:17:55;219.55;;;49.80;;
78555;SDS011;67851;51.354;7.744;2024-01-07T07:20:22;105.15;;;27.77;;
78555;SDS011;67851;51.354;7.744;2024-01-07T07:22:51;171.75;;;38.35;;
78555;SDS011;67851;51.354;7.744;2024-01-07T07:25:17;224.13;;;48.88;;
78555;SDS011;67851;51.354;7.744;2024-01-07T07:27:45;89.43;;;24.88;;
78555;SDS011;67851;51.354;7.744;2024-01-07T07:30:12;158.75;;;39.63;;
78555;SDS011;67851;51.354;7.744;2024-01-07T07:32:40;81.45;;;24.27;;
78555;SDS011;67851;51.354;7.744;2024-01-07T07:35:09;156.25;;;40.65;;
78555;SDS011;67851;51.354;7.744;2024-01-07T07:37:37;72.10;;;21.25;;
78555;SDS011;67851;51.354;7.744;2024-01-07T07:40:04;146.93;;;39.63;;
78555;SDS011;67851;51.354;7.744;2024-01-07T07:42:33;152.20;;;40.05;;
78555;SDS011;67851;51.354;7.744;2024-01-07T07:45:01;109.45;;;30.60;;
78555;SDS011;67851;51.354;7.744;2024-01-07T07:47:29;143.57;;;37.65;;
78555;SDS011;67851;51.354;7.744;2024-01-07T07:49:57;113.93;;;35.00;;
78555;SDS011;67851;51.354;7.744;2024-01-07T07:52:24;120.85;;;37.30;;
78555;SDS011;67851;51.354;7.744;2024-01-07T07:54:52;99.10;;;29.90;;
78555;SDS011;67851;51.354;7.744;2024-01-07T07:57:19;106.75;;;34.17;;
78555;SDS011;67851;51.354;7.744;2024-01-07T07:59:50;90.15;;;28.02;;
78555;SDS011;67851;51.354;7.744;2024-01-07T08:02:17;71.65;;;23.85;;
78555;SDS011;67851;51.354;7.744;2024-01-07T08:04:44;45.80;;;16.85;;
78555;SDS011;67851;51.354;7.744;2024-01-07T08:07:10;87.45;;;28.70;;
78555;SDS011;67851;51.354;7.744;2024-01-07T08:09:37;65.47;;;23.60;;
78555;SDS011;67851;51.354;7.744;2024-01-07T08:12:04;72.22;;;23.02;;
78555;SDS011;67851;51.354;7.744;2024-01-07T08:14:33;42.25;;;14.88;;
78555;SDS011;67851;51.354;7.744;2024-01-07T08:17:01;79.45;;;25.42;;
78555;SDS011;67851;51.354;7.744;2024-01-07T08:19:29;93.13;;;30.95;;
78555;SDS011;67851;51.354;7.744;2024-01-07T08:21:58;98.20;;;23.98;;
78555;SDS011;67851;51.354;7.744;2024-01-07T08:24:26;48.42;;;18.67;;
78555;SDS011;67851;51.354;7.744;2024-01-07T08:26:53;89.07;;;19.42;;
78555;SDS011;67851;51.354;7.744;2024-01-07T08:29:20;168.82;;;40.08;;
78555;SDS011;67851;51.354;7.744;2024-01-07T08:31:47;190.63;;;40.72;;
78555;SDS011;67851;51.354;7.744;2024-01-07T08:34:14;36.25;;;15.18;;
78555;SDS011;67851;51.354;7.744;2024-01-07T08:36:42;77.13;;;22.92;;
78555;SDS011;67851;51.354;7.744;2024-01-07T08:39:09;72.22;;;24.63;;
78555;SDS011;67851;51.354;7.744;2024-01-07T08:41:37;84.63;;;31.10;;
78555;SDS011;67851;51.354;7.744;2024-01-07T08:44:04;161.15;;;44.58;;
78555;SDS011;67851;51.354;7.744;2024-01-07T08:46:31;127.85;;;41.17;;
78555;SDS011;67851;51.354;7.744;2024-01-07T08:48:57;87.30;;;29.77;;
78555;SDS011;67851;51.354;7.744;2024-01-07T08:51:24;84.97;;;29.13;;
78555;SDS011;67851;51.354;7.744;2024-01-07T08:53:52;88.60;;;30.48;;
78555;SDS011;67851;51.354;7.744;2024-01-07T08:56:19;120.45;;;38.70;;
78555;SDS011;67851;51.354;7.744;2024-01-07T08:58:45;70.13;;;27.17;;
78555;SDS011;67851;51.354;7.744;2024-01-07T09:01:12;76.40;;;27.15;;
78555;SDS011;67851;51.354;7.744;2024-01-07T09:03:40;95.55;;;33.08;;
78555;SDS011;67851;51.354;7.744;2024-01-07T09:06:08;129.63;;;41.88;;
78555;SDS011;67851;51.354;7.744;2024-01-07T09:08:35;58.78;;;24.15;;
78555;SDS011;67851;51.354;7.744;2024-01-07T09:11:05;69.95;;;24.90;;
78555;SDS011;67851;51.354;7.744;2024-01-07T09:13:33;49.97;;;15.90;;
78555;SDS011;67851;51.354;7.744;2024-01-07T09:15:59;100.03;;;35.35;;
78555;SDS011;67851;51.354;7.744;2024-01-07T09:18:26;90.00;;;34.58;;
78555;SDS011;67851;51.354;7.744;2024-01-07T09:20:53;40.33;;;18.83;;
78555;SDS011;67851;51.354;7.744;2024-01-07T09:23:19;63.35;;;27.52;;
78555;SDS011;67851;51.354;7.744;2024-01-07T09:25:46;53.35;;;21.52;;
78555;SDS011;67851;51.354;7.744;2024-01-07T09:28:13;74.80;;;30.85;;
78555;SDS011;67851;51.354;7.744;2024-01-07T09:30:40;48.50;;;21.80;;
78555;SDS011;67851;51.354;7.744;2024-01-07T09:33:06;64.97;;;27.67;;
78555;SDS011;67851;51.354;7.744;2024-01-07T09:35:33;78.68;;;29.27;;
78555;SDS011;67851;51.354;7.744;2024-01-07T09:38:00;58.00;;;25.73;;
78555;SDS011;67851;51.354;7.744;2024-01-07T09:40:27;84.65;;;35.05;;
78555;SDS011;67851;51.354;7.744;2024-01-07T09:42:55;77.95;;;33.83;;
78555;SDS011;67851;51.354;7.744;2024-01-07T09:45:24;50.88;;;23.33;;
78555;SDS011;67851;51.354;7.744;2024-01-07T09:47:51;67.53;;;32.03;;
78555;SDS011;67851;51.354;7.744;2024-01-07T09:50:20;51.75;;;26.75;;
78555;SDS011;67851;51.354;7.744;2024-01-07T09:52:46;57.10;;;25.63;;
78555;SDS011;67851;51.354;7.744;2024-01-07T09:55:57;46.33;;;22.17;;
78555;SDS011;67851;51.354;7.744;2024-01-07T09:58:06;64.60;;;26.40;;
78555;SDS011;67851;51.354;7.744;2024-01-07T10:00:33;80.80;;;33.22;;
78555;SDS011;67851;51.354;7.744;2024-01-07T10:03:02;65.50;;;28.02;;
78555;SDS011;67851;51.354;7.744;2024-01-07T10:05:29;29.58;;;14.88;;
78555;SDS011;67851;51.354;7.744;2024-01-07T10:07:59;43.08;;;20.13;;
78555;SDS011;67851;51.354;7.744;2024-01-07T10:10:27;41.55;;;19.77;;
78555;SDS011;67851;51.354;7.744;2024-01-07T10:12:55;36.08;;;16.83;;
78555;SDS011;67851;51.354;7.744;2024-01-07T10:15:23;49.75;;;24.20;;
78555;SDS011;67851;51.354;7.744;2024-01-07T10:17:50;53.22;;;24.95;;
78555;SDS011;67851;51.354;7.744;2024-01-07T10:20:21;60.37;;;26.70;;
78555;SDS011;67851;51.354;7.744;2024-01-07T10:22:51;57.03;;;27.52;;
78555;SDS011;67851;51.354;7.744;2024-01-07T10:25:18;40.58;;;19.33;;
78555;SDS011;67851;51.354;7.744;2024-01-07T10:27:45;45.28;;;21.67;;
78555;SDS011;67851;51.354;7.744;2024-01-07T10:30:12;49.08;;;24.48;;
78555;SDS011;67851;51.354;7.744;2024-01-07T10:32:41;63.42;;;31.73;;
78555;SDS011;67851;51.354;7.744;2024-01-07T10:35:12;32.03;;;13.50;;
78555;SDS011;67851;51.354;7.744;2024-01-07T10:37:42;31.17;;;15.32;;
78555;SDS011;67851;51.354;7.744;2024-01-07T10:40:11;56.08;;;21.55;;
78555;SDS011;67851;51.354;7.744;2024-01-07T10:42:38;28.98;;;10.85;;
78555;SDS011;67851;51.354;7.744;2024-01-07T10:45:06;24.15;;;13.35;;
78555;SDS011;67851;51.354;7.744;2024-01-07T10:47:35;35.53;;;12.75;;
78555;SDS011;67851;51.354;7.744;2024-01-07T10:50:02;34.17;;;13.35;;
78555;SDS011;67851;51.354;7.744;2024-01-07T10:52:30;24.60;;;13.45;;
78555;SDS011;67851;51.354;7.744;2024-01-07T10:55:02;34.30;;;17.38;;
78555;SDS011;67851;51.354;7.744;2024-01-07T11:00:03;27.25;;;12.60;;
78555;SDS011;67851;51.354;7.744;2024-01-07T11:02:39;30.48;;;14.85;;
78555;SDS011;67851;51.354;7.744;2024-01-07T11:05:22;38.10;;;17.67;;
78555;SDS011;67851;51.354;7.744;2024-01-07T11:07:55;31.57;;;14.63;;
78555;SDS011;67851;51.354;7.744;2024-01-07T11:11:03;19.90;;;9.90;;
78555;SDS011;67851;51.354;7.744;2024-01-07T11:13:32;39.60;;;17.25;;
78555;SDS011;67851;51.354;7.744;2024-01-07T11:16:04;20.52;;;11.32;;
78555;SDS011;67851;51.354;7.744;2024-01-07T11:18:38;23.20;;;12.75;;
78555;SDS011;67851;51.354;7.744;2024-01-07T11:21:21;20.63;;;12.40;;
78555;SDS011;67851;51.354;7.744;2024-01-07T11:23:48;18.13;;;10.30;;
78555;SDS011;67851;51.354;7.744;2024-01-07T11:26:14;20.73;;;12.07;;
78555;SDS011;67851;51.354;7.744;2024-01-07T11:28:51;18.33;;;8.98;;
78555;SDS011;67851;51.354;7.744;2024-01-07T11:31:19;22.52;;;12.05;;
78555;SDS011;67851;51.354;7.744;2024-01-07T11:33:49;25.80;;;11.93;;
78555;SDS011;67851;51.354;7.744;2024-01-07T11:36:16;19.83;;;12.20;;
78555;SDS011;67851;51.354;7.744;2024-01-07T11:38:49;18.13;;;10.43;;
78555;SDS011;67851;51.354;7.744;2024-01-07T11:41:20;16.00;;;9.88;;
78555;SDS011;67851;51.354;7.744;2024-01-07T11:43:55;17.13;;;7.78;;
78555;SDS011;67851;51.354;7.744;2024-01-07T11:46:26;15.63;;;8.70;;
78555;SDS011;67851;51.354;7.744;2024-01-07T11:48:55;19.13;;;10.52;;
78555;SDS011;67851;51.354;7.744;2024-01-07T11:51:26;20.13;;;10.95;;
78555;SDS011;67851;51.354;7.744;2024-01-07T11:54:01;16.77;;;9.40;;
78555;SDS011;67851;51.354;7.744;2024-01-07T11:56:28;17.33;;;9.18;;
78555;SDS011;67851;51.354;7.744;2024-01-07T11:58:56;20.17;;;10.45;;
78555;SDS011;67851;51.354;7.744;2024-01-07T12:01:23;17.23;;;10.52;;
78555;SDS011;67851;51.354;7.744;2024-01-07T12:03:52;14.60;;;8.05;;
78555;SDS011;67851;51.354;7.744;2024-01-07T12:06:19;11.60;;;5.55;;
78555;SDS011;67851;51.354;7.744;2024-01-07T12:08:46;12.68;;;7.00;;
78555;SDS011;67851;51.354;7.744;2024-01-07T12:11:13;21.27;;;11.23;;
78555;SDS011;67851;51.354;7.744;2024-01-07T12:13:40;19.33;;;11.05;;
78555;SDS011;67851;51.354;7.744;2024-01-07T12:16:08;15.30;;;8.68;;
78555;SDS011;67851;51.354;7.744;2024-01-07T12:18:36;23.58;;;10.57;;
78555;SDS011;67851;51.354;7.744;2024-01-07T12:21:03;15.75;;;7.45;;
78555;SDS011;67851;51.354;7.744;2024-01-07T12:23:37;18.73;;;8.90;;
78555;SDS011;67851;51.354;7.744;2024-01-07T12:26:10;16.80;;;9.10;;
78555;SDS011;67851;51.354;7.744;2024-01-07T12:28:37;13.77;;;7.57;;
78555;SDS011;67851;51.354;7.744;2024-01-07T12:31:05;8.63;;;5.32;;
78555;SDS011;67851;51.354;7.744;2024-01-07T12:33:33;12.90;;;8.02;;
78555;SDS011;67851;51.354;7.744;2024-01-07T12:36:00;18.55;;;9.57;;
78555;SDS011;67851;51.354;7.744;2024-01-07T12:38:27;8.32;;;5.32;;
78555;SDS011;67851;51.354;7.744;2024-01-07T12:40:54;11.68;;;7.68;;
78555;SDS011;67851;51.354;7.744;2024-01-07T12:43:21;12.60;;;7.15;;
78555;SDS011;67851;51.354;7.744;2024-01-07T12:45:48;16.00;;;8.18;;
78555;SDS011;67851;51.354;7.744;2024-01-07T12:48:15;16.90;;;8.00;;
78555;SDS011;67851;51.354;7.744;2024-01-07T12:50:42;12.02;;;7.57;;
78555;SDS011;67851;51.354;7.744;2024-01-07T12:53:09;12.07;;;7.05;;
78555;SDS011;67851;51.354;7.744;2024-01-07T12:55:36;9.50;;;5.38;;
78555;SDS011;67851;51.354;7.744;2024-01-07T12:58:02;9.98;;;5.90;;
78555;SDS011;67851;51.354;7.744;2024-01-07T13:00:29;9.68;;;4.78;;
78555;SDS011;67851;51.354;7.744;2024-01-07T13:02:56;8.75;;;4.93;;
78555;SDS011;67851;51.354;7.744;2024-01-07T13:05:27;6.20;;;3.17;;
78555;SDS011;67851;51.354;7.744;2024-01-07T13:07:54;10.25;;;5.47;;
78555;SDS011;67851;51.354;7.744;2024-01-07T13:10:22;9.80;;;6.00;;
78555;SDS011;67851;51.354;7.744;2024-01-07T13:12:48;7.38;;;4.30;;
78555;SDS011;67851;51.354;7.744;2024-01-07T13:15:20;7.85;;;5.35;;
78555;SDS011;67851;51.354;7.744;2024-01-07T13:17:48;8.75;;;4.85;;
78555;SDS011;67851;51.354;7.744;2024-01-07T13:20:15;7.50;;;4.57;;
78555;SDS011;67851;51.354;7.744;2024-01-07T13:22:43;6.50;;;4.00;;
78555;SDS011;67851;51.354;7.744;2024-01-07T13:25:10;7.88;;;4.32;;
78555;SDS011;67851;51.354;7.744;2024-01-07T13:27:36;8.88;;;4.03;;
78555;SDS011;67851;51.354;7.744;2024-01-07T13:30:04;9.57;;;5.15;;
78555;SDS011;67851;51.354;7.744;2024-01-07T13:32:34;7.55;;;3.65;;
78555;SDS011;67851;51.354;7.744;2024-01-07T13:35:03;11.32;;;6.03;;
78555;SDS011;67851;51.354;7.744;2024-01-07T13:37:31;6.35;;;3.70;;
78555;SDS011;67851;51.354;7.744;2024-01-07T13:39:58;4.85;;;3.30;;
78555;SDS011;67851;51.354;7.744;2024-01-07T13:42:25;5.88;;;4.18;;
78555;SDS011;67851;51.354;7.744;2024-01-07T13:44:52;4.35;;;3.53;;
78555;SDS011;67851;51.354;7.744;2024-01-07T13:47:18;9.35;;;4.88;;
78555;SDS011;67851;51.354;7.744;2024-01-07T13:49:45;9.38;;;6.57;;
78555;SDS011;67851;51.354;7.744;2024-01-07T13:52:13;6.35;;;4.13;;
78555;SDS011;67851;51.354;7.744;2024-01-07T13:54:41;7.60;;;4.65;;
78555;SDS011;67851;51.354;7.744;2024-01-07T13:57:08;6.55;;;4.32;;
78555;SDS011;67851;51.354;7.744;2024-01-07T13:59:35;10.25;;;5.50;;
78555;SDS011;67851;51.354;7.744;2024-01-07T14:02:02;9.30;;;4.50;;
78555;SDS011;67851;51.354;7.744;2024-01-07T14:04:29;5.88;;;3.88;;
78555;SDS011;67851;51.354;7.744;2024-01-07T14:06:56;6.70;;;4.10;;
78555;SDS011;67851;51.354;7.744;2024-01-07T14:09:23;6.75;;;4.03;;
78555;SDS011;67851;51.354;7.744;2024-01-07T14:11:51;5.75;;;3.67;;
78555;SDS011;67851;51.354;7.744;2024-01-07T14:14:18;5.85;;;3.63;;
78555;SDS011;67851;51.354;7.744;2024-01-07T14:16:48;8.07;;;4.90;;
78555;SDS011;67851;51.354;7.744;2024-01-07T14:19:15;6.20;;;3.60;;
78555;SDS011;67851;51.354;7.744;2024-01-07T14:21:42;7.57;;;4.50;;
78555;SDS011;67851;51.354;7.744;2024-01-07T14:24:09;4.68;;;2.80;;